Time;durP1;ratioP1;P1;durP2;ratioP2;P2;SDS_P1;SDS_P2;PMS_P1;PMS_P2;Temp;Humidity;BMP_temperature;BMP_pressure;BME280_temperature;BME280_humidity;BME280_pressure;Samples;Min_cycle;Max_cycle;Signal;HPM_P1;HPM_P2
2022/11/06 00:00:44;;;;;;;10.00;7.43;;;;;;;9.54;67.90;100312.28;5025344;28;20050;-76
2022/11/06 00:03:11;;;;;;;11.30;6.38;;;;;;;9.65;68.40;100312.88;5033613;28;20417;-75
2022/11/06 00:09:01;;;;;;;8.30;7.00;;;;;;;9.60;68.21;100293.53;5045742;28;20076;-76
2022/11/06 00:11:33;;;;;;;13.52;6.88;;;;;;;9.58;68.64;100302.19;5007365;28;20058;-76
2022/11/06 00:14:02;;;;;;;8.88;6.15;;;;;;;9.60;68.70;100286.03;5013410;28;20392;-76
2022/11/06 00:16:32;;;;;;;11.45;6.15;;;;;;;9.60;67.91;100286.03;5028292;28;20061;-76
2022/11/06 00:19:09;;;;;;;11.68;6.72;;;;;;;9.59;68.69;100289.09;5026706;28;20065;-76
2022/11/06 00:21:36;;;;;;;10.95;6.43;;;;;;;9.45;67.95;100289.97;5034215;28;20068;-77
2022/11/06 00:24:09;;;;;;;9.32;6.35;;;;;;;9.44;68.82;100288.31;5032105;28;20069;-77
2022/11/06 00:26:36;;;;;;;13.27;5.82;;;;;;;9.57;67.83;100294.97;5033320;28;20061;-76
2022/11/06 00:29:05;;;;;;;13.70;6.28;;;;;;;9.53;68.25;100286.44;5030917;28;20053;-76
2022/11/06 00:31:39;;;;;;;9.50;5.95;;;;;;;9.54;68.57;100303.94;5033608;28;20504;-77
2022/11/06 00:34:07;;;;;;;8.63;5.45;;;;;;;9.48;68.41;100307.97;5033965;28;20060;-76
2022/11/06 00:36:35;;;;;;;9.57;4.97;;;;;;;9.70;68.13;100308.03;5032550;28;20064;-75
2022/11/06 00:39:03;;;;;;;7.38;5.07;;;;;;;9.75;66.61;100307.91;5032775;28;20066;-75
2022/11/06 00:41:30;;;;;;;9.25;5.55;;;;;;;9.71;68.43;100306.88;5014687;28;20422;-75
2022/11/06 00:44:00;;;;;;;12.30;5.68;;;;;;;9.76;67.18;100311.50;5005413;28;20101;-75
2022/11/06 00:46:33;;;;;;;8.25;5.03;;;;;;;9.93;67.35;100300.56;5005764;28;20153;-75
2022/11/06 00:49:02;;;;;;;7.03;5.25;;;;;;;9.98;66.08;100296.00;5013842;28;20050;-75
2022/11/06 00:51:31;;;;;;;9.98;5.65;;;;;;;9.94;66.58;100301.38;5018785;28;20060;-75
2022/11/06 00:54:00;;;;;;;6.95;4.68;;;;;;;10.08;66.37;100304.94;5032995;28;20057;-75
2022/11/06 00:56:28;;;;;;;8.55;5.35;;;;;;;10.19;66.12;100301.91;5033064;28;20053;-75
2022/11/06 00:59:01;;;;;;;8.73;4.40;;;;;;;10.05;65.39;100297.19;5032874;28;20072;-76
2022/11/06 01:01:33;;;;;;;7.07;4.22;;;;;;;10.20;65.28;100300.75;5033224;28;20501;-75
2022/11/06 01:04:05;;;;;;;6.57;4.53;;;;;;;10.04;66.70;100315.03;5032933;28;20057;-75
2022/11/06 01:06:34;;;;;;;9.20;4.47;;;;;;;10.27;65.14;100293.59;5024058;28;20062;-76
2022/11/06 01:09:02;;;;;;;6.30;3.97;;;;;;;10.20;64.85;100304.34;5033093;28;20429;-76
2022/11/06 01:11:32;;;;;;;9.10;4.80;;;;;;;10.25;64.92;100309.00;5033338;28;20053;-76
2022/11/06 01:14:00;;;;;;;;;;;;;;;10.11;65.24;100309.03;5033005;28;20053;-76
2022/11/06 01:16:31;;;;;;;7.57;4.15;;;;;;;10.11;65.00;100307.06;5033435;28;20035;-76
2022/11/06 01:19:04;;;;;;;8.65;4.22;;;;;;;9.94;65.55;100316.09;5028754;28;20061;-76
2022/11/06 01:21:35;;;;;;;5.85;3.95;;;;;;;9.98;65.91;100318.28;5013646;28;20058;-76
2022/11/06 01:24:10;;;;;;;10.27;4.28;;;;;;;10.06;65.71;100311.97;5013150;28;20073;-76
2022/11/06 01:26:38;;;;;;;5.75;4.50;;;;;;;9.98;66.25;100316.31;5013643;28;20058;-75
2022/11/06 01:29:08;;;;;;;9.15;4.88;;;;;;;9.87;66.24;100312.09;5013101;28;20054;-76
2022/11/06 01:31:40;;;;;;;7.05;4.30;;;;;;;9.83;67.04;100311.09;5013375;28;20050;-75
2022/11/06 01:34:17;;;;;;;7.75;3.80;;;;;;;9.83;66.02;100289.66;5022060;28;20073;-75
2022/11/06 01:36:46;;;;;;;6.75;4.05;;;;;;;9.79;67.32;100293.38;5024395;28;20064;-75
2022/11/06 01:39:16;;;;;;;5.95;4.25;;;;;;;9.80;66.27;100290.28;5032491;28;20137;-75
2022/11/06 01:41:50;;;;;;;7.30;4.35;;;;;;;9.65;67.14;100283.09;5024762;28;20371;-75
2022/11/06 01:47:45;;;;;;;7.60;3.70;;;;;;;9.68;66.58;100276.94;5016178;28;20509;-75
2022/11/06 01:50:14;;;;;;;7.30;3.63;;;;;;;9.71;66.46;100265.16;5031503;28;20057;-75
2022/11/06 01:52:44;;;;;;;;;;;;;;;9.60;67.60;100274.91;5032720;28;20057;-75
2022/11/06 01:55:16;;;;;;;7.95;4.03;;;;;;;9.57;67.58;100255.22;5032394;28;20297;-76
2022/11/06 01:57:44;;;;;;;5.85;3.70;;;;;;;9.62;66.53;100250.38;5032181;28;20064;-76
2022/11/06 02:00:15;;;;;;;5.53;3.95;;;;;;;9.66;66.60;100245.84;5029237;28;20065;-76
2022/11/06 02:02:42;;;;;;;6.15;4.00;;;;;;;9.67;67.27;100241.91;5021042;28;20061;-76
2022/11/06 02:05:14;;;;;;;5.38;3.85;;;;;;;9.64;67.51;100242.53;5031508;28;20055;-76
2022/11/06 02:07:46;;;;;;;7.28;3.53;;;;;;;9.68;66.88;100232.44;5031388;28;20053;-75
2022/11/06 02:10:13;;;;;;;6.65;3.15;;;;;;;9.64;66.43;100236.13;5031731;28;20057;-75
2022/11/06 02:12:53;;;;;;;9.05;4.22;;;;;;;9.63;66.73;100240.06;5023863;28;20056;-75
2022/11/06 02:15:30;;;;;;;7.50;3.95;;;;;;;9.64;67.31;100233.34;5031936;28;20061;-75
2022/11/06 02:18:12;;;;;;;5.80;3.42;;;;;;;9.63;66.49;100229.75;5020085;28;20045;-76
2022/11/06 02:20:46;;;;;;;5.53;3.22;;;;;;;9.62;66.13;100227.31;5004854;28;20061;-74
2022/11/06 02:23:36;;;;;;;7.30;3.78;;;;;;;9.50;67.41;100228.66;5005054;28;20073;-75
2022/11/06 02:26:20;;;;;;;7.28;3.75;;;;;;;9.55;67.11;100211.03;5004148;28;20065;-75
2022/11/06 02:31:37;;;;;;;7.90;3.60;;;;;;;9.48;66.59;100228.16;5006367;28;20057;-75
2022/11/06 02:34:11;;;;;;;6.38;3.40;;;;;;;9.43;67.25;100217.16;5012113;28;20054;-75
2022/11/06 02:36:46;;;;;;;7.68;3.47;;;;;;;9.48;67.22;100232.91;5004553;28;20422;-75
2022/11/06 02:39:18;;;;;;;6.43;3.30;;;;;;;9.57;67.08;100219.88;5012309;28;20165;-75
2022/11/06 02:41:47;;;;;;;6.43;3.70;;;;;;;9.62;66.67;100216.19;5004493;28;20062;-75
2022/11/06 02:44:20;;;;;;;7.40;3.53;;;;;;;9.57;66.18;100214.31;5012161;28;20425;-75
2022/11/06 02:46:52;;;;;;;6.30;3.45;;;;;;;9.54;66.96;100204.66;5019760;28;20060;-74
2022/11/06 02:49:25;;;;;;;8.02;3.50;;;;;;;9.72;67.27;100208.41;5031569;28;20067;-75
2022/11/06 02:51:56;;;;;;;5.07;3.42;;;;;;;9.71;67.12;100223.44;5031888;28;20072;-75
2022/11/06 02:54:28;;;;;;;6.15;3.80;;;;;;;9.72;65.98;100211.19;5031331;28;20068;-75
2022/11/06 02:56:59;;;;;;;6.60;3.15;;;;;;;9.69;65.90;100214.59;5023841;28;20490;-75
2022/11/06 02:59:37;;;;;;;5.78;3.75;;;;;;;9.65;67.02;100210.81;5031409;28;20061;-75
2022/11/06 03:02:09;;;;;;;8.20;3.65;;;;;;;9.75;66.02;100220.88;5030921;28;20525;-75
2022/11/06 03:04:44;;;;;;;5.45;3.30;;;;;;;9.85;66.54;100217.00;5031838;28;20064;-75
2022/11/06 03:07:17;;;;;;;6.53;3.45;;;;;;;9.89;66.36;100226.34;5023897;28;20061;-76
2022/11/06 03:09:45;;;;;;;8.30;3.60;;;;;;;9.84;65.73;100218.16;5039166;28;20060;-76
2022/11/06 03:12:21;;;;;;;6.07;3.38;;;;;;;9.77;66.63;100210.25;5055328;28;20052;-76
2022/11/06 03:14:57;;;;;;;7.03;3.22;;;;;;;9.79;66.58;100213.53;5055585;28;20053;-76
2022/11/06 03:17:38;;;;;;;5.82;3.30;;;;;;;9.63;66.39;100215.03;5054777;28;20068;-76
2022/11/06 03:20:16;;;;;;;9.43;3.53;;;;;;;9.74;65.94;100213.66;5051650;28;20466;-79
2022/11/06 03:22:49;;;;;;;7.88;3.45;;;;;;;9.70;65.63;100205.13;5035516;28;20065;-80
2022/11/06 03:25:21;;;;;;;4.93;3.08;;;;;;;9.77;65.91;100206.66;5034568;28;20061;-79
2022/11/06 03:27:59;;;;;;;4.65;2.72;;;;;;;9.60;66.05;100201.78;5034510;28;20069;-80
2022/11/06 03:30:27;;;;;;;4.57;2.95;;;;;;;9.69;67.28;100203.47;5016878;28;20057;-79
2022/11/06 03:33:00;;;;;;;7.10;3.47;;;;;;;9.69;67.05;100189.56;5020743;28;20061;-79
2022/11/06 03:35:33;;;;;;;4.38;3.00;;;;;;;9.69;66.12;100203.47;5016283;28;20395;-79
2022/11/06 03:38:06;;;;;;;5.57;2.80;;;;;;;9.70;66.45;100185.66;5014911;28;20054;-80
2022/11/06 03:40:41;;;;;;;8.65;2.90;;;;;;;9.75;67.02;100170.81;5015324;28;20069;-80
2022/11/06 03:43:12;;;;;;;7.97;3.15;;;;;;;9.57;67.25;100178.19;5014770;28;20069;-79
2022/11/06 03:45:44;;;;;;;6.38;3.17;;;;;;;9.53;67.91;100160.47;5020752;28;20508;-80
2022/11/06 03:48:18;;;;;;;7.22;3.00;;;;;;;9.47;67.03;100181.19;5034191;28;20060;-81
2022/11/06 03:50:51;;;;;;;6.80;3.20;;;;;;;9.46;68.16;100171.22;5033159;28;20053;-79
2022/11/06 03:53:24;;;;;;;6.78;3.50;;;;;;;9.48;67.17;100153.09;5007776;28;20054;-79
2022/11/06 03:55:55;;;;;;;5.18;2.92;;;;;;;9.49;67.22;100143.63;5015028;28;20069;-79
2022/11/06 03:58:26;;;;;;;5.00;2.90;;;;;;;9.53;67.21;100163.25;5014038;28;20069;-81
2022/11/06 04:00:56;;;;;;;3.85;2.63;;;;;;;9.51;67.93;100173.88;5024163;28;20068;-81
2022/11/06 04:03:28;;;;;;;6.28;2.75;;;;;;;9.55;66.97;100169.34;5034598;28;20129;-81
2022/11/06 04:06:02;;;;;;;6.75;2.90;;;;;;;9.52;66.85;100172.75;5049177;28;20060;-81
2022/11/06 04:14:07;;;;;;;5.80;2.72;;;;;;;9.63;67.00;100196.38;5055526;28;20056;-80
2022/11/06 04:16:39;;;;;;;6.90;3.00;;;;;;;9.69;67.28;100209.03;5034380;28;20172;-81
2022/11/06 04:19:15;;;;;;;4.88;3.20;;;;;;;9.65;66.42;100202.47;5033682;28;20065;-80
2022/11/06 04:21:59;;;;;;;5.47;3.03;;;;;;;9.64;67.82;100198.06;5034953;28;20057;-81
2022/11/06 04:27:29;;;;;;;5.45;2.72;;;;;;;9.67;67.26;100208.53;5040157;28;20064;-80
2022/11/06 04:30:04;;;;;;;8.95;3.00;;;;;;;9.68;66.19;100203.78;5033325;28;20068;-81
2022/11/06 04:32:45;;;;;;;4.78;2.83;;;;;;;9.68;67.62;100201.84;5034001;28;20061;-82
2022/11/06 04:35:21;;;;;;;6.30;2.78;;;;;;;9.63;67.24;100185.25;5034102;28;20053;-81
2022/11/06 04:37:57;;;;;;;5.72;3.25;;;;;;;9.51;67.12;100190.56;5034413;28;20061;-82
2022/11/06 04:40:31;;;;;;;5.15;2.70;;;;;;;9.63;67.19;100196.38;5033748;28;20493;-81
2022/11/06 04:43:02;;;;;;;5.30;3.20;;;;;;;9.69;67.51;100188.75;5033426;28;20050;-80
2022/11/06 04:45:33;;;;;;;6.47;2.55;;;;;;;9.64;67.25;100191.66;5028795;28;20057;-80
2022/11/06 04:48:02;;;;;;;5.30;2.42;;;;;;;9.54;67.26;100170.47;5033599;28;20486;-81
2022/11/06 04:50:33;;;;;;;4.43;2.70;;;;;;;9.59;67.11;100184.25;5033470;28;20056;-81
2022/11/06 04:53:03;;;;;;;5.20;3.22;;;;;;;9.52;67.97;100172.75;5033903;28;20064;-81
2022/11/06 04:55:30;;;;;;;4.47;2.50;;;;;;;9.49;67.12;100167.81;5033567;28;20497;-81
2022/11/06 04:57:57;;;;;;;6.35;2.45;;;;;;;9.41;66.75;100163.84;5031930;28;20061;-81
2022/11/06 05:00:25;;;;;;;5.93;2.20;;;;;;;9.33;68.21;100165.41;5033233;28;20057;-81
2022/11/06 05:02:52;;;;;;;5.47;2.50;;;;;;;9.31;66.95;100150.19;5033510;28;20053;-81
2022/11/06 05:05:21;;;;;;;6.75;2.97;;;;;;;9.43;66.80;100158.78;5033449;28;20058;-81
2022/11/06 05:07:48;;;;;;;4.20;2.20;;;;;;;9.38;66.81;100160.88;5033331;28;20061;-81
2022/11/06 05:10:15;;;;;;;5.97;2.50;;;;;;;9.31;68.30;100156.56;5033204;28;20057;-81
2022/11/06 05:12:43;;;;;;;5.53;2.72;;;;;;;9.30;67.76;100171.59;5032741;28;20422;-81
2022/11/06 05:15:10;;;;;;;5.32;2.47;;;;;;;9.44;68.22;100156.81;5032605;28;20053;-81
2022/11/06 05:17:37;;;;;;;5.95;2.58;;;;;;;9.39;68.54;100146.66;5033614;28;20077;-81
2022/11/06 05:20:06;;;;;;;6.97;2.38;;;;;;;9.35;67.03;100142.88;5033070;28;20471;-81
2022/11/06 05:25:19;;;;;;;7.60;3.15;;;;;;;9.35;68.79;100126.19;5037767;28;20064;-81
2022/11/06 05:27:46;;;;;;;5.20;2.13;;;;;;;9.27;68.06;100111.06;5032575;28;20064;-81
2022/11/06 05:30:14;;;;;;;4.72;2.25;;;;;;;9.38;68.05;100119.16;5032843;28;20068;-81
2022/11/06 05:32:41;;;;;;;6.40;2.50;;;;;;;9.18;68.90;100110.19;5032789;28;20065;-81
2022/11/06 05:35:16;;;;;;;6.78;2.53;;;;;;;9.17;67.91;100111.31;5022897;28;20053;-79
2022/11/06 05:37:45;;;;;;;6.40;2.38;;;;;;;9.24;68.28;100111.72;5014243;28;20069;-81
2022/11/06 05:40:13;;;;;;;4.22;2.10;;;;;;;9.28;68.72;100100.78;5031027;28;20482;-81
2022/11/06 05:42:42;;;;;;;9.43;3.03;;;;;;;9.30;68.40;100112.38;5030682;28;20068;-81
2022/11/06 05:45:10;;;;;;;4.32;2.30;;;;;;;9.29;68.77;100094.91;5032296;28;20496;-79
2022/11/06 05:47:40;;;;;;;7.50;2.38;;;;;;;9.08;69.58;100102.09;5032449;28;20053;-81
2022/11/06 05:50:09;;;;;;;6.30;2.40;;;;;;;9.27;68.14;100099.94;5032568;28;20049;-81
2022/11/06 05:52:37;;;;;;;7.28;2.60;;;;;;;9.38;67.27;100088.59;5032275;28;20437;-81
2022/11/06 05:55:07;;;;;;;4.53;2.00;;;;;;;9.31;67.80;100095.41;5032470;28;20504;-81
2022/11/06 05:57:34;;;;;;;5.82;2.28;;;;;;;9.18;68.50;100101.03;5027285;28;20061;-81
2022/11/06 06:00:01;;;;;;;7.10;2.28;;;;;;;9.30;68.41;100095.72;5013058;28;20058;-81
2022/11/06 06:02:28;;;;;;;6.45;2.50;;;;;;;9.31;68.73;100094.59;5012831;28;20065;-81
2022/11/06 06:04:56;;;;;;;4.07;2.00;;;;;;;9.25;68.86;100084.75;5018877;28;20060;-80
2022/11/06 06:07:23;;;;;;;5.10;2.10;;;;;;;9.20;67.68;100082.06;5032185;28;20064;-81
2022/11/06 06:09:50;;;;;;;6.93;2.38;;;;;;;9.21;69.00;100090.09;5032413;28;20057;-81
2022/11/06 06:12:19;;;;;;;7.22;2.10;;;;;;;9.27;68.36;100083.28;5014065;28;20081;-81
2022/11/06 06:14:46;;;;;;;7.38;2.20;;;;;;;9.28;67.78;100081.31;5012416;28;20065;-80
2022/11/06 06:17:14;;;;;;;4.55;1.90;;;;;;;9.31;68.19;100095.41;5012714;28;20061;-81
2022/11/06 06:19:41;;;;;;;5.22;1.90;;;;;;;9.30;68.46;100084.59;5012425;28;20490;-81
2022/11/06 06:22:08;;;;;;;6.32;2.00;;;;;;;9.38;68.63;100071.91;5012565;28;20064;-81
2022/11/06 06:24:35;;;;;;;4.28;1.98;;;;;;;9.36;67.38;100069.44;5011347;28;20471;-78
2022/11/06 06:27:03;;;;;;;6.82;1.92;;;;;;;9.26;68.97;100059.41;4992659;28;20058;-82
2022/11/06 06:29:31;;;;;;;5.57;2.10;;;;;;;9.19;68.15;100066.53;4995445;28;20513;-81
2022/11/06 06:32:00;;;;;;;4.97;2.28;;;;;;;9.24;67.69;100067.25;5012153;28;20069;-81
2022/11/06 06:34:29;;;;;;;3.67;2.15;;;;;;;9.34;67.33;100067.00;5011830;28;20053;-81
2022/11/06 06:36:57;;;;;;;7.13;1.95;;;;;;;9.43;67.76;100080.09;4992809;28;20058;-81
2022/11/06 06:39:24;;;;;;;8.85;2.10;;;;;;;9.40;67.56;100067.66;4992140;28;20062;-80
2022/11/06 06:41:51;;;;;;;5.18;2.40;;;;;;;9.33;67.87;100079.25;5011375;28;20065;-81
2022/11/06 06:44:18;;;;;;;7.25;2.42;;;;;;;9.46;67.91;100080.31;5011860;28;20509;-80
2022/11/06 06:46:47;;;;;;;5.60;1.90;;;;;;;9.45;67.15;100072.28;5012114;28;20065;-81
2022/11/06 06:49:14;;;;;;;4.70;2.10;;;;;;;9.48;67.11;100083.59;5011833;28;20577;-80
2022/11/06 06:51:41;;;;;;;6.20;2.15;;;;;;;9.58;66.54;100082.53;5011981;28;20061;-81
2022/11/06 06:54:09;;;;;;;4.88;2.10;;;;;;;9.58;67.68;100070.59;5013212;28;20126;-81
2022/11/06 06:56:36;;;;;;;7.63;1.88;;;;;;;9.65;67.18;100077.31;5014990;28;20414;-81
2022/11/06 06:59:07;;;;;;;8.18;2.67;;;;;;;9.68;66.30;100073.06;5026516;28;20056;-81
2022/11/06 07:01:34;;;;;;;6.80;1.95;;;;;;;9.71;66.92;100064.94;5016362;28;20100;-80
2022/11/06 07:04:05;;;;;;;5.53;1.83;;;;;;;9.63;67.25;100064.88;5017661;28;20061;-81
2022/11/06 07:06:32;;;;;;;4.85;2.10;;;;;;;9.62;66.20;100061.28;5034398;28;20060;-81
2022/11/06 07:09:00;;;;;;;6.53;1.77;;;;;;;9.71;67.20;100070.50;5036167;28;20407;-81
2022/11/06 07:11:27;;;;;;;3.15;1.58;;;;;;;9.90;66.54;100061.91;5034420;28;20064;-80
2022/11/06 07:13:54;;;;;;;4.72;1.73;;;;;;;10.27;65.54;100079.28;5034710;28;20072;-81
2022/11/06 07:16:22;;;;;;;4.13;1.77;;;;;;;10.86;63.69;100078.94;5035101;28;20116;-79
2022/11/06 07:18:49;;;;;;;3.25;1.73;;;;;;;11.13;62.37;100077.00;5035263;28;20057;-80
2022/11/06 07:21:18;;;;;;;5.18;2.05;;;;;;;10.85;62.21;100091.22;5033651;28;20053;-79
2022/11/06 07:23:45;;;;;;;6.30;2.00;;;;;;;10.82;62.75;100085.50;5035186;28;20053;-80
2022/11/06 07:26:13;;;;;;;4.63;1.88;;;;;;;10.55;63.34;100084.63;5032525;28;20053;-80
2022/11/06 07:28:40;;;;;;;7.18;2.03;;;;;;;10.63;63.71;100088.56;5022332;28;20068;-80
2022/11/06 07:31:11;;;;;;;5.20;1.95;;;;;;;10.65;63.23;100100.22;5015560;28;20061;-80
2022/11/06 07:33:38;;;;;;;5.40;1.83;;;;;;;10.46;64.29;100095.75;5015391;28;20503;-79
2022/11/06 07:36:08;;;;;;;5.35;2.00;;;;;;;10.54;64.43;100096.88;5014646;28;20054;-79
2022/11/06 07:38:38;;;;;;;7.88;2.05;;;;;;;10.92;62.79;100091.56;5023171;28;20423;-79
2022/11/06 07:41:06;;;;;;;;;;;;;;;10.75;63.25;100094.31;5033345;28;20061;-80
2022/11/06 07:43:33;;;;;;;8.02;1.92;;;;;;;10.86;63.62;100087.28;5027894;28;19922;-79
2022/11/06 07:46:02;;;;;;;3.42;1.77;;;;;;;11.18;62.49;100082.41;5027563;28;20410;-79
2022/11/06 07:48:31;;;;;;;5.97;1.70;;;;;;;11.21;62.40;100087.31;5024056;28;20489;-80
2022/11/06 07:50:58;;;;;;;5.07;2.00;;;;;;;11.81;61.45;100093.16;5034826;28;20418;-80
2022/11/06 07:53:26;;;;;;;6.22;2.17;;;;;;;13.40;57.06;100076.84;5034428;28;20155;-79
2022/11/06 07:55:57;;;;;;;3.35;1.77;;;;;;;15.95;50.98;100088.56;5033279;28;20061;-79
2022/11/06 07:58:25;;;;;;;4.10;1.80;;;;;;;17.34;46.89;100079.06;5021180;28;20057;-80
2022/11/06 08:00:54;;;;;;;6.90;1.92;;;;;;;18.25;43.38;100071.97;5014874;28;20491;-80
2022/11/06 08:03:22;;;;;;;4.85;2.10;;;;;;;18.98;41.94;100063.47;5011545;28;20058;-79
2022/11/06 08:05:49;;;;;;;6.05;2.00;;;;;;;19.79;39.60;100064.88;5019971;28;20050;-79
2022/11/06 08:08:17;;;;;;;3.78;1.80;;;;;;;20.47;38.91;100061.88;5015721;28;20058;-80
2022/11/06 08:10:46;;;;;;;5.28;1.83;;;;;;;21.18;36.98;100049.44;5014000;28;20153;-80
2022/11/06 08:13:19;;;;;;;3.97;1.55;;;;;;;21.19;37.22;100046.22;5014048;28;20144;-80
2022/11/06 08:15:46;;;;;;;6.40;1.92;;;;;;;21.01;36.53;100046.09;5010942;28;20424;-83
2022/11/06 08:18:14;;;;;;;5.25;1.67;;;;;;;20.87;37.08;100046.00;5015398;28;20058;-82
2022/11/06 08:20:41;;;;;;;4.75;1.73;;;;;;;20.73;39.86;100045.94;5012080;28;20062;-76
2022/11/06 08:23:11;;;;;;;5.88;1.90;;;;;;;19.52;40.22;100041.56;5008322;28;20054;-76
2022/11/06 08:25:39;;;;;;;3.85;1.55;;;;;;;19.87;40.22;100052.47;5014496;28;20065;-82
2022/11/06 08:28:08;;;;;;;3.47;1.50;;;;;;;21.58;36.02;100027.75;5024624;28;20045;-82
2022/11/06 08:30:37;;;;;;;5.53;1.80;;;;;;;22.44;33.83;100039.22;5041417;28;20129;-80
2022/11/06 08:33:07;;;;;;;4.20;1.45;;;;;;;22.60;34.18;100033.94;5036688;28;20083;-80
2022/11/06 08:35:35;;;;;;;4.80;1.67;;;;;;;22.29;34.75;100025.03;5035982;28;20064;-80
2022/11/06 08:38:02;;;;;;;3.75;1.30;;;;;;;23.27;33.05;100014.31;5036424;28;20057;-81
2022/11/06 08:40:30;;;;;;;5.60;1.60;;;;;;;22.99;33.00;100016.00;5036012;28;20049;-81
2022/11/06 08:42:59;;;;;;;3.40;1.48;;;;;;;21.94;34.31;100013.66;5027353;28;20060;-81
2022/11/06 08:45:26;;;;;;;3.28;1.45;;;;;;;23.00;33.17;100025.34;5035696;28;20030;-80
2022/11/06 08:47:55;;;;;;;3.28;1.65;;;;;;;23.44;32.33;100018.31;5035872;28;20054;-81
2022/11/06 08:50:23;;;;;;;3.70;1.50;;;;;;;23.32;32.41;100019.56;5034685;28;20062;-79
2022/11/06 08:52:50;;;;;;;4.47;1.58;;;;;;;24.00;31.69;100016.38;5012693;28;20057;-82
2022/11/06 08:55:17;;;;;;;4.65;1.55;;;;;;;23.32;32.58;100013.88;5014874;28;20057;-83
2022/11/06 08:57:44;;;;;;;3.20;1.50;;;;;;;20.95;35.86;100002.38;5014038;28;20518;-82
2022/11/06 09:00:14;;;;;;;3.10;1.40;;;;;;;20.54;37.31;100013.03;5012729;28;20062;-82
2022/11/06 09:02:42;;;;;;;5.05;1.88;;;;;;;19.85;37.74;100004.00;5002832;28;20454;-81
2022/11/06 09:05:11;;;;;;;2.42;1.30;;;;;;;21.91;35.39;99997.47;5007272;28;20058;-83
2022/11/06 09:07:38;;;;;;;4.63;2.08;;;;;;;21.87;34.66;99995.41;4998552;28;20058;-82
2022/11/06 09:10:06;;;;;;;4.28;1.60;;;;;;;23.49;32.18;99981.69;5013147;28;20509;-81
2022/11/06 09:12:33;;;;;;;4.68;1.48;;;;;;;24.74;30.83;99976.28;5007854;28;20050;-81
2022/11/06 09:15:00;;;;;;;3.88;1.80;;;;;;;25.38;29.39;99979.56;5012341;28;20053;-80
2022/11/06 09:17:28;;;;;;;3.90;1.63;;;;;;;26.05;28.51;99982.69;5020139;28;20061;-80
2022/11/06 09:19:55;;;;;;;6.20;1.70;;;;;;;24.53;30.75;99965.91;5003585;28;20065;-80
2022/11/06 09:22:24;;;;;;;5.35;1.65;;;;;;;23.28;32.45;99965.56;5011296;28;20062;-79
2022/11/06 09:24:53;;;;;;;3.53;1.38;;;;;;;25.25;29.70;99957.34;5004996;28;20179;-81
2022/11/06 09:27:20;;;;;;;;;;;;;;;21.70;34.27;99979.19;5010986;28;20123;-81
2022/11/06 09:29:48;;;;;;;4.05;1.50;;;;;;;20.53;36.65;99975.44;5002528;28;19928;-82
2022/11/06 09:32:15;;;;;;;6.22;1.63;;;;;;;20.05;37.84;99979.16;4993107;28;20471;-81
2022/11/06 09:34:43;;;;;;;5.82;1.70;;;;;;;19.66;38.48;99984.41;5006665;28;20050;-82
2022/11/06 09:37:11;;;;;;;4.88;1.50;;;;;;;18.32;41.07;99977.44;5008090;28;20058;-81
2022/11/06 09:39:40;;;;;;;3.22;1.50;;;;;;;18.91;40.57;99980.72;5009934;28;20491;-81
2022/11/06 09:42:18;;;;;;;5.82;1.90;;;;;;;19.13;39.83;99976.97;5010950;28;20417;-81
2022/11/06 09:44:58;;;;;;;4.97;1.50;;;;;;;18.99;40.08;99968.31;5003937;28;20065;-81
2022/11/06 09:47:32;;;;;;;6.03;1.77;;;;;;;19.35;39.67;99955.41;5009933;28;20478;-81
2022/11/06 09:50:03;;;;;;;3.42;1.58;;;;;;;19.56;40.20;99963.31;5009593;28;20053;-80
2022/11/06 09:52:38;;;;;;;4.55;1.52;;;;;;;19.33;39.30;99954.19;5012242;28;20050;-80
2022/11/06 09:55:16;;;;;;;3.92;1.58;;;;;;;19.03;39.75;99958.69;5001613;28;20050;-80
2022/11/06 09:57:48;;;;;;;4.22;1.42;;;;;;;18.81;41.68;99951.13;5013694;28;20465;-81
2022/11/06 10:00:20;;;;;;;3.85;1.50;;;;;;;18.04;42.24;99942.78;5029992;28;20054;-78
2022/11/06 10:02:51;;;;;;;4.82;1.40;;;;;;;17.72;43.66;99935.75;5021045;28;20057;-78
2022/11/06 10:05:26;;;;;;;2.50;1.40;;;;;;;17.31;43.73;99929.81;5029095;28;20064;-79
2022/11/06 10:07:57;;;;;;;5.63;1.80;;;;;;;17.79;43.30;99925.44;5029426;28;20081;-79
2022/11/06 10:10:36;;;;;;;3.72;1.60;;;;;;;17.01;44.21;99922.81;5029847;28;20057;-80
2022/11/06 10:13:20;;;;;;;7.00;2.05;;;;;;;17.57;43.08;99931.88;5028005;28;20077;-80
2022/11/06 10:15:55;;;;;;;5.45;2.25;;;;;;;17.25;44.42;99930.09;5023069;28;20054;-79
2022/11/06 10:18:35;;;;;;;3.38;1.80;;;;;;;17.19;44.47;99925.16;5023446;28;20057;-79
2022/11/06 10:21:10;;;;;;;2.88;1.48;;;;;;;17.16;44.34;99928.72;5028686;28;20493;-79
2022/11/06 10:23:45;;;;;;;4.53;1.70;;;;;;;17.04;44.76;99919.22;5020396;28;20065;-79
2022/11/06 10:26:18;;;;;;;5.10;1.70;;;;;;;16.82;45.47;99920.00;5028061;28;20065;-79
2022/11/06 10:29:21;;;;;;;4.78;1.58;;;;;;;17.21;45.66;99917.16;5017024;28;20061;-79
2022/11/06 10:32:02;;;;;;;3.40;1.70;;;;;;;17.16;44.70;99912.63;5026725;28;20054;-80
2022/11/06 10:34:34;;;;;;;3.00;1.70;;;;;;;17.25;45.04;99909.56;5015903;28;20504;-80
2022/11/06 10:37:08;;;;;;;3.70;1.60;;;;;;;17.24;44.76;99905.16;5027324;28;21512;-78
2022/11/06 10:39:37;;;;;;;4.13;1.58;;;;;;;17.00;44.30;99898.66;5002568;28;20057;-79
2022/11/06 10:42:15;;;;;;;3.35;1.80;;;;;;;17.04;45.19;99902.34;5019460;28;20467;-79
2022/11/06 10:44:49;;;;;;;5.63;1.77;;;;;;;17.31;44.14;99884.75;5020336;28;20418;-80
2022/11/06 10:47:19;;;;;;;3.75;1.63;;;;;;;17.88;43.19;99880.13;5018798;28;20058;-79
2022/11/06 10:49:50;;;;;;;3.47;1.85;;;;;;;19.42;39.80;99867.13;5028899;28;20050;-79
2022/11/06 10:52:36;;;;;;;4.30;1.92;;;;;;;19.50;39.04;99868.00;5010930;28;20054;-79
2022/11/06 10:55:36;;;;;;;2.83;1.50;;;;;;;20.06;38.97;99872.50;5019569;28;20057;-79
2022/11/06 10:58:08;;;;;;;4.90;2.55;;;;;;;19.95;39.50;99865.94;5006615;28;20425;-80
2022/11/06 11:00:35;;;;;;;3.22;1.88;;;;;;;19.82;38.64;99869.13;5011242;28;20054;-79
2022/11/06 11:03:16;;;;;;;3.88;1.83;;;;;;;19.10;39.09;99849.88;5010620;28;20058;-79
2022/11/06 11:05:44;;;;;;;3.28;1.52;;;;;;;18.38;40.39;99849.03;5012168;28;20392;-80
2022/11/06 11:08:39;;;;;;;5.30;1.95;;;;;;;17.46;41.55;99855.66;5010981;28;20061;-80
2022/11/06 11:11:18;;;;;;;4.88;2.03;;;;;;;17.25;42.04;99861.72;5006337;28;20057;-79
2022/11/06 11:14:10;;;;;;;3.88;1.75;;;;;;;17.66;41.86;99870.50;5010913;28;20068;-79
2022/11/06 11:16:41;;;;;;;3.47;1.77;;;;;;;17.41;41.51;99875.69;5013890;28;20060;-83
2022/11/06 11:19:27;;;;;;;3.65;1.60;;;;;;;17.65;41.61;99852.75;5006989;28;20073;-80
2022/11/06 11:21:59;;;;;;;3.90;1.58;;;;;;;18.18;40.66;99834.25;5016972;28;20474;-79
2022/11/06 11:24:29;;;;;;;3.38;1.63;;;;;;;17.85;40.77;99845.06;5016449;28;20053;-80
2022/11/06 11:27:02;;;;;;;;;;;;;;;17.54;42.25;99828.44;5017555;28;20054;-79
2022/11/06 11:29:43;;;;;;;3.45;1.70;;;;;;;17.70;41.96;99811.38;5017415;28;19948;-80
2022/11/06 11:32:16;;;;;;;4.88;2.00;;;;;;;17.55;42.23;99810.34;5016667;28;20084;-75
2022/11/06 11:34:46;;;;;;;4.18;2.17;;;;;;;17.16;42.05;99807.72;5008425;28;20418;-74
2022/11/06 11:37:24;;;;;;;4.70;1.98;;;;;;;16.95;42.38;99808.94;5014010;28;20054;-75
2022/11/06 11:39:51;;;;;;;4.68;1.80;;;;;;;16.99;43.16;99795.75;5010828;28;20053;-75
2022/11/06 11:42:24;;;;;;;5.10;1.90;;;;;;;16.79;43.26;99797.75;5012856;28;20065;-74
2022/11/06 11:45:15;;;;;;;5.10;1.90;;;;;;;16.74;42.47;99786.81;5014760;28;20068;-74
2022/11/06 11:47:45;;;;;;;3.15;1.58;;;;;;;16.80;43.75;99785.38;5015000;28;20077;-74
2022/11/06 11:50:26;;;;;;;5.43;1.90;;;;;;;16.81;43.36;99784.16;5014816;28;20072;-74
2022/11/06 11:53:04;;;;;;;4.43;1.90;;;;;;;17.28;42.53;99782.16;5012948;28;20487;-75
2022/11/06 11:55:42;;;;;;;4.03;1.88;;;;;;;18.88;39.00;99776.28;5013638;28;20057;-76
2022/11/06 11:58:21;;;;;;;3.88;1.70;;;;;;;18.01;40.75;99762.34;5006476;28;20387;-75
2022/11/06 12:00:58;;;;;;;3.55;1.63;;;;;;;17.75;40.91;99757.56;5014229;28;20057;-74
2022/11/06 12:03:36;;;;;;;4.13;1.70;;;;;;;17.14;41.22;99760.22;5014412;28;20501;-76
2022/11/06 12:06:06;;;;;;;2.65;1.52;;;;;;;16.64;41.91;99743.25;5014223;28;20057;-75
2022/11/06 12:08:34;;;;;;;2.38;1.50;;;;;;;16.39;43.09;99741.97;5013796;28;20073;-76
2022/11/06 12:11:03;;;;;;;3.25;1.50;;;;;;;16.42;42.81;99741.22;4995564;28;20058;-75